sensor_id;sensor_type;location;lat;lon;timestamp;temperature;humidity
975;DHT22;6115;49.296;10.602;2022-08-25T00:02:03;17.60;72.50
975;DHT22;6115;49.296;10.602;2022-08-25T00:07:06;17.60;72.30
975;DHT22;6115;49.296;10.602;2022-08-25T00:12:06;17.50;72.50
975;DHT22;6115;49.296;10.602;2022-08-25T00:17:08;17.50;72.90
975;DHT22;6115;49.296;10.602;2022-08-25T00:22:08;17.50;73.10
975;DHT22;6115;49.296;10.602;2022-08-25T00:27:09;17.40;73.30
975;DHT22;6115;49.296;10.602;2022-08-25T00:32:11;17.30;74.10
975;DHT22;6115;49.296;10.602;2022-08-25T00:37:12;17.10;74.30
975;DHT22;6115;49.296;10.602;2022-08-25T00:42:13;17.10;74.10
975;DHT22;6115;49.296;10.602;2022-08-25T00:47:15;17.10;73.90
975;DHT22;6115;49.296;10.602;2022-08-25T00:52:19;17.20;73.70
975;DHT22;6115;49.296;10.602;2022-08-25T00:57:28;17.10;73.80
975;DHT22;6115;49.296;10.602;2022-08-25T01:02:29;17.10;74.00
975;DHT22;6115;49.296;10.602;2022-08-25T01:07:29;17.10;74.00
975;DHT22;6115;49.296;10.602;2022-08-25T01:12:30;17.00;73.70
975;DHT22;6115;49.296;10.602;2022-08-25T01:17:38;17.00;73.60
975;DHT22;6115;49.296;10.602;2022-08-25T01:22:45;16.80;73.70
975;DHT22;6115;49.296;10.602;2022-08-25T01:27:46;16.80;73.90
975;DHT22;6115;49.296;10.602;2022-08-25T01:32:46;16.80;73.90
975;DHT22;6115;49.296;10.602;2022-08-25T01:37:47;16.70;73.90
975;DHT22;6115;49.296;10.602;2022-08-25T01:42:57;16.70;74.00
975;DHT22;6115;49.296;10.602;2022-08-25T01:48:02;16.70;73.90
975;DHT22;6115;49.296;10.602;2022-08-25T01:53:07;16.70;74.20
975;DHT22;6115;49.296;10.602;2022-08-25T01:58:10;16.60;74.40
975;DHT22;6115;49.296;10.602;2022-08-25T02:03:12;16.50;74.60
975;DHT22;6115;49.296;10.602;2022-08-25T02:08:13;16.50;74.80
975;DHT22;6115;49.296;10.602;2022-08-25T02:13:14;16.50;74.80
975;DHT22;6115;49.296;10.602;2022-08-25T02:18:15;16.50;74.60
975;DHT22;6115;49.296;10.602;2022-08-25T02:23:16;16.40;74.70
975;DHT22;6115;49.296;10.602;2022-08-25T02:28:17;16.20;75.20
975;DHT22;6115;49.296;10.602;2022-08-25T02:33:18;16.20;75.30
975;DHT22;6115;49.296;10.602;2022-08-25T02:38:19;16.30;74.70
975;DHT22;6115;49.296;10.602;2022-08-25T02:43:19;16.30;74.40
975;DHT22;6115;49.296;10.602;2022-08-25T02:48:20;16.20;74.10
975;DHT22;6115;49.296;10.602;2022-08-25T02:53:21;16.20;74.50
975;DHT22;6115;49.296;10.602;2022-08-25T02:58:21;16.20;75.00
975;DHT22;6115;49.296;10.602;2022-08-25T03:03:23;16.10;75.10
975;DHT22;6115;49.296;10.602;2022-08-25T03:08:23;16.10;75.20
975;DHT22;6115;49.296;10.602;2022-08-25T03:13:24;16.10;75.20
975;DHT22;6115;49.296;10.602;2022-08-25T03:18:25;16.00;75.10
975;DHT22;6115;49.296;10.602;2022-08-25T03:23:26;15.80;75.30
975;DHT22;6115;49.296;10.602;2022-08-25T03:28:27;15.70;75.40
975;DHT22;6115;49.296;10.602;2022-08-25T03:33:32;15.80;75.20
975;DHT22;6115;49.296;10.602;2022-08-25T03:38:32;15.80;74.90
975;DHT22;6115;49.296;10.602;2022-08-25T03:43:33;15.80;74.90
975;DHT22;6115;49.296;10.602;2022-08-25T03:48:34;15.70;75.30
975;DHT22;6115;49.296;10.602;2022-08-25T03:53:34;15.60;75.80
975;DHT22;6115;49.296;10.602;2022-08-25T03:58:35;15.60;75.50
975;DHT22;6115;49.296;10.602;2022-08-25T04:03:35;15.70;75.20
975;DHT22;6115;49.296;10.602;2022-08-25T04:08:36;15.60;74.70
975;DHT22;6115;49.296;10.602;2022-08-25T04:13:37;15.50;74.60
975;DHT22;6115;49.296;10.602;2022-08-25T04:18:39;15.50;75.20
975;DHT22;6115;49.296;10.602;2022-08-25T04:23:41;15.40;75.30
975;DHT22;6115;49.296;10.602;2022-08-25T04:28:43;15.40;75.80
975;DHT22;6115;49.296;10.602;2022-08-25T04:33:44;15.40;75.40
975;DHT22;6115;49.296;10.602;2022-08-25T04:38:47;15.50;75.30
975;DHT22;6115;49.296;10.602;2022-08-25T04:43:50;15.50;75.20
975;DHT22;6115;49.296;10.602;2022-08-25T04:48:52;15.50;75.30
975;DHT22;6115;49.296;10.602;2022-08-25T04:53:54;15.50;75.40
975;DHT22;6115;49.296;10.602;2022-08-25T04:58:55;15.50;75.60
975;DHT22;6115;49.296;10.602;2022-08-25T05:03:59;15.50;75.80
975;DHT22;6115;49.296;10.602;2022-08-25T05:09:00;15.30;76.60
975;DHT22;6115;49.296;10.602;2022-08-25T05:14:01;15.30;76.70
975;DHT22;6115;49.296;10.602;2022-08-25T05:19:01;15.40;76.40
975;DHT22;6115;49.296;10.602;2022-08-25T05:24:02;15.50;76.40
975;DHT22;6115;49.296;10.602;2022-08-25T05:29:03;15.60;76.40
975;DHT22;6115;49.296;10.602;2022-08-25T05:34:06;15.60;76.70
975;DHT22;6115;49.296;10.602;2022-08-25T05:39:07;15.70;76.80
975;DHT22;6115;49.296;10.602;2022-08-25T05:44:08;15.80;76.80
975;DHT22;6115;49.296;10.602;2022-08-25T05:49:09;15.90;76.90
975;DHT22;6115;49.296;10.602;2022-08-25T05:54:09;16.10;77.20
975;DHT22;6115;49.296;10.602;2022-08-25T05:59:10;16.20;77.60
975;DHT22;6115;49.296;10.602;2022-08-25T06:04:12;16.30;78.10
975;DHT22;6115;49.296;10.602;2022-08-25T06:09:13;16.50;79.00
975;DHT22;6115;49.296;10.602;2022-08-25T06:14:14;16.70;78.90
975;DHT22;6115;49.296;10.602;2022-08-25T06:19:15;16.90;80.30
975;DHT22;6115;49.296;10.602;2022-08-25T06:24:16;17.10;81.10
975;DHT22;6115;49.296;10.602;2022-08-25T06:29:16;17.30;81.20
975;DHT22;6115;49.296;10.602;2022-08-25T06:34:17;17.50;80.80
975;DHT22;6115;49.296;10.602;2022-08-25T06:39:18;17.60;80.40
975;DHT22;6115;49.296;10.602;2022-08-25T06:44:19;17.90;80.60
975;DHT22;6115;49.296;10.602;2022-08-25T06:49:20;18.10;80.30
975;DHT22;6115;49.296;10.602;2022-08-25T06:54:21;18.40;80.40
975;DHT22;6115;49.296;10.602;2022-08-25T06:59:22;18.50;80.20
975;DHT22;6115;49.296;10.602;2022-08-25T07:04:23;18.60;79.80
975;DHT22;6115;49.296;10.602;2022-08-25T07:09:24;18.70;79.70
975;DHT22;6115;49.296;10.602;2022-08-25T07:14:24;19.00;78.90
975;DHT22;6115;49.296;10.602;2022-08-25T07:19:25;19.10;78.20
975;DHT22;6115;49.296;10.602;2022-08-25T07:24:25;19.40;79.20
975;DHT22;6115;49.296;10.602;2022-08-25T07:29:27;19.60;77.60
975;DHT22;6115;49.296;10.602;2022-08-25T07:34:28;19.90;76.80
975;DHT22;6115;49.296;10.602;2022-08-25T07:39:47;20.00;76.10
975;DHT22;6115;49.296;10.602;2022-08-25T07:44:47;20.40;74.90
975;DHT22;6115;49.296;10.602;2022-08-25T07:49:48;20.70;74.00
975;DHT22;6115;49.296;10.602;2022-08-25T07:54:48;21.00;72.40
975;DHT22;6115;49.296;10.602;2022-08-25T07:59:49;21.30;71.10
975;DHT22;6115;49.296;10.602;2022-08-25T08:04:51;21.50;69.40
975;DHT22;6115;49.296;10.602;2022-08-25T08:09:52;21.70;67.20
975;DHT22;6115;49.296;10.602;2022-08-25T08:14:54;22.00;66.10
975;DHT22;6115;49.296;10.602;2022-08-25T08:19:54;22.30;64.00
975;DHT22;6115;49.296;10.602;2022-08-25T08:24:55;22.50;62.50
975;DHT22;6115;49.296;10.602;2022-08-25T08:29:56;22.80;61.70
975;DHT22;6115;49.296;10.602;2022-08-25T08:34:56;23.20;60.60
975;DHT22;6115;49.296;10.602;2022-08-25T08:39:57;23.60;58.50
975;DHT22;6115;49.296;10.602;2022-08-25T08:50:17;24.10;56.20
975;DHT22;6115;49.296;10.602;2022-08-25T08:55:42;24.30;55.20
975;DHT22;6115;49.296;10.602;2022-08-25T09:00:46;24.70;54.00
975;DHT22;6115;49.296;10.602;2022-08-25T09:05:52;25.00;54.30
975;DHT22;6115;49.296;10.602;2022-08-25T09:16:14;25.50;52.00
975;DHT22;6115;49.296;10.602;2022-08-25T09:21:43;25.70;51.00
975;DHT22;6115;49.296;10.602;2022-08-25T09:32:21;26.60;49.10
975;DHT22;6115;49.296;10.602;2022-08-25T09:37:22;27.00;47.40
975;DHT22;6115;49.296;10.602;2022-08-25T09:42:44;26.90;48.60
975;DHT22;6115;49.296;10.602;2022-08-25T09:47:45;27.50;46.60
975;DHT22;6115;49.296;10.602;2022-08-25T09:52:46;27.90;46.80
975;DHT22;6115;49.296;10.602;2022-08-25T09:57:52;28.30;45.40
975;DHT22;6115;49.296;10.602;2022-08-25T10:03:19;28.60;44.10
975;DHT22;6115;49.296;10.602;2022-08-25T10:13:47;28.60;44.60
975;DHT22;6115;49.296;10.602;2022-08-25T10:19:10;29.10;44.00
975;DHT22;6115;49.296;10.602;2022-08-25T10:24:12;29.00;43.90
975;DHT22;6115;49.296;10.602;2022-08-25T10:29:32;29.40;42.60
975;DHT22;6115;49.296;10.602;2022-08-25T10:34:47;29.70;41.60
975;DHT22;6115;49.296;10.602;2022-08-25T10:45:28;29.70;40.90
975;DHT22;6115;49.296;10.602;2022-08-25T10:56:25;30.30;40.70
975;DHT22;6115;49.296;10.602;2022-08-25T11:12:01;28.80;42.90
975;DHT22;6115;49.296;10.602;2022-08-25T11:17:11;28.90;44.30
975;DHT22;6115;49.296;10.602;2022-08-25T11:22:29;29.70;43.30
975;DHT22;6115;49.296;10.602;2022-08-25T11:27:37;30.20;41.20
975;DHT22;6115;49.296;10.602;2022-08-25T11:32:44;30.50;40.10
975;DHT22;6115;49.296;10.602;2022-08-25T11:43:41;30.80;39.10
975;DHT22;6115;49.296;10.602;2022-08-25T12:04:52;29.00;41.70
975;DHT22;6115;49.296;10.602;2022-08-25T12:14:55;28.60;42.50
975;DHT22;6115;49.296;10.602;2022-08-25T12:20:12;28.50;42.50
975;DHT22;6115;49.296;10.602;2022-08-25T12:25:24;28.70;42.90
975;DHT22;6115;49.296;10.602;2022-08-25T12:30:52;29.30;40.70
975;DHT22;6115;49.296;10.602;2022-08-25T12:36:08;29.50;40.60
975;DHT22;6115;49.296;10.602;2022-08-25T12:56:39;30.40;38.90
975;DHT22;6115;49.296;10.602;2022-08-25T13:07:35;29.90;38.50
975;DHT22;6115;49.296;10.602;2022-08-25T13:18:12;29.40;38.50
975;DHT22;6115;49.296;10.602;2022-08-25T13:23:16;29.50;39.60
975;DHT22;6115;49.296;10.602;2022-08-25T13:28:26;30.00;38.70
975;DHT22;6115;49.296;10.602;2022-08-25T13:33:27;31.10;37.00
975;DHT22;6115;49.296;10.602;2022-08-25T13:38:27;31.40;35.10
975;DHT22;6115;49.296;10.602;2022-08-25T13:43:29;31.30;35.90
975;DHT22;6115;49.296;10.602;2022-08-25T13:53:33;31.50;34.40
975;DHT22;6115;49.296;10.602;2022-08-25T13:58:35;31.80;32.10
975;DHT22;6115;49.296;10.602;2022-08-25T14:03:38;31.50;33.60
975;DHT22;6115;49.296;10.602;2022-08-25T14:08:42;31.70;33.50
975;DHT22;6115;49.296;10.602;2022-08-25T14:13:43;32.40;33.10
975;DHT22;6115;49.296;10.602;2022-08-25T14:18:50;33.40;30.80
975;DHT22;6115;49.296;10.602;2022-08-25T14:23:52;33.50;29.80
975;DHT22;6115;49.296;10.602;2022-08-25T14:28:53;34.00;29.60
975;DHT22;6115;49.296;10.602;2022-08-25T14:34:01;34.70;28.60
975;DHT22;6115;49.296;10.602;2022-08-25T14:39:03;35.20;28.50
975;DHT22;6115;49.296;10.602;2022-08-25T14:44:06;35.00;28.30
975;DHT22;6115;49.296;10.602;2022-08-25T14:49:11;34.80;29.00
975;DHT22;6115;49.296;10.602;2022-08-25T14:54:13;34.60;28.80
975;DHT22;6115;49.296;10.602;2022-08-25T14:59:14;33.70;30.80
975;DHT22;6115;49.296;10.602;2022-08-25T15:04:21;33.80;31.10
975;DHT22;6115;49.296;10.602;2022-08-25T15:09:25;33.80;29.90
975;DHT22;6115;49.296;10.602;2022-08-25T15:14:26;33.70;31.00
975;DHT22;6115;49.296;10.602;2022-08-25T15:19:27;33.40;30.80
975;DHT22;6115;49.296;10.602;2022-08-25T15:24:28;32.80;31.60
975;DHT22;6115;49.296;10.602;2022-08-25T15:29:31;32.60;32.00
975;DHT22;6115;49.296;10.602;2022-08-25T15:34:34;32.30;32.60
975;DHT22;6115;49.296;10.602;2022-08-25T15:39:36;32.30;33.30
975;DHT22;6115;49.296;10.602;2022-08-25T15:44:40;31.80;33.90
975;DHT22;6115;49.296;10.602;2022-08-25T15:49:40;31.50;34.10
975;DHT22;6115;49.296;10.602;2022-08-25T15:54:42;31.20;35.00
975;DHT22;6115;49.296;10.602;2022-08-25T15:59:42;31.50;34.60
975;DHT22;6115;49.296;10.602;2022-08-25T16:04:43;32.00;33.90
975;DHT22;6115;49.296;10.602;2022-08-25T16:09:44;31.70;34.10
975;DHT22;6115;49.296;10.602;2022-08-25T16:14:44;31.50;34.40
975;DHT22;6115;49.296;10.602;2022-08-25T16:19:45;31.10;34.90
975;DHT22;6115;49.296;10.602;2022-08-25T16:24:46;30.90;35.80
975;DHT22;6115;49.296;10.602;2022-08-25T16:29:47;30.70;35.50
975;DHT22;6115;49.296;10.602;2022-08-25T16:34:48;30.40;35.20
975;DHT22;6115;49.296;10.602;2022-08-25T16:39:55;30.30;36.00
975;DHT22;6115;49.296;10.602;2022-08-25T16:44:56;30.00;36.20
975;DHT22;6115;49.296;10.602;2022-08-25T16:49:56;29.90;36.30
975;DHT22;6115;49.296;10.602;2022-08-25T16:54:57;29.80;36.70
975;DHT22;6115;49.296;10.602;2022-08-25T17:00:16;29.50;38.00
975;DHT22;6115;49.296;10.602;2022-08-25T17:05:17;29.30;38.10
975;DHT22;6115;49.296;10.602;2022-08-25T17:10:18;29.20;38.60
975;DHT22;6115;49.296;10.602;2022-08-25T17:15:18;29.10;38.60
975;DHT22;6115;49.296;10.602;2022-08-25T17:20:23;29.10;38.70
975;DHT22;6115;49.296;10.602;2022-08-25T17:25:23;29.00;39.90
975;DHT22;6115;49.296;10.602;2022-08-25T17:30:24;28.90;40.30
975;DHT22;6115;49.296;10.602;2022-08-25T17:35:25;28.70;41.00
975;DHT22;6115;49.296;10.602;2022-08-25T17:40:26;28.60;41.30
975;DHT22;6115;49.296;10.602;2022-08-25T17:45:28;28.50;41.60
975;DHT22;6115;49.296;10.602;2022-08-25T17:50:28;28.30;42.00
975;DHT22;6115;49.296;10.602;2022-08-25T17:55:29;28.20;42.20
975;DHT22;6115;49.296;10.602;2022-08-25T18:00:30;28.20;42.70
975;DHT22;6115;49.296;10.602;2022-08-25T18:05:33;28.00;43.10
975;DHT22;6115;49.296;10.602;2022-08-25T18:10:34;27.70;43.80
975;DHT22;6115;49.296;10.602;2022-08-25T18:15:35;27.50;44.10
975;DHT22;6115;49.296;10.602;2022-08-25T18:20:39;27.30;44.30
975;DHT22;6115;49.296;10.602;2022-08-25T18:25:40;27.00;45.90
975;DHT22;6115;49.296;10.602;2022-08-25T18:30:41;27.00;45.60
975;DHT22;6115;49.296;10.602;2022-08-25T18:35:42;26.90;45.50
975;DHT22;6115;49.296;10.602;2022-08-25T18:40:42;26.80;45.70
975;DHT22;6115;49.296;10.602;2022-08-25T18:45:46;26.50;45.90
975;DHT22;6115;49.296;10.602;2022-08-25T18:50:47;26.10;47.00
975;DHT22;6115;49.296;10.602;2022-08-25T18:55:49;25.90;47.70
975;DHT22;6115;49.296;10.602;2022-08-25T19:00:50;25.90;48.50
975;DHT22;6115;49.296;10.602;2022-08-25T19:05:51;25.90;48.60
975;DHT22;6115;49.296;10.602;2022-08-25T19:10:52;25.80;48.70
975;DHT22;6115;49.296;10.602;2022-08-25T19:15:53;25.60;49.10
975;DHT22;6115;49.296;10.602;2022-08-25T19:20:54;25.40;49.90
975;DHT22;6115;49.296;10.602;2022-08-25T19:25:54;25.20;50.40
975;DHT22;6115;49.296;10.602;2022-08-25T19:30:55;25.10;51.30
975;DHT22;6115;49.296;10.602;2022-08-25T19:35:55;25.00;51.40
975;DHT22;6115;49.296;10.602;2022-08-25T19:40:56;24.90;52.10
975;DHT22;6115;49.296;10.602;2022-08-25T19:45:57;24.80;52.40
975;DHT22;6115;49.296;10.602;2022-08-25T19:50:58;24.50;53.10
975;DHT22;6115;49.296;10.602;2022-08-25T19:55:59;24.40;53.30
975;DHT22;6115;49.296;10.602;2022-08-25T20:01:01;24.20;53.60
975;DHT22;6115;49.296;10.602;2022-08-25T20:06:01;23.80;53.80
975;DHT22;6115;49.296;10.602;2022-08-25T20:11:02;23.70;54.60
975;DHT22;6115;49.296;10.602;2022-08-25T20:16:03;23.70;55.10
975;DHT22;6115;49.296;10.602;2022-08-25T20:21:04;23.70;55.20
975;DHT22;6115;49.296;10.602;2022-08-25T20:26:07;23.60;55.80
975;DHT22;6115;49.296;10.602;2022-08-25T20:31:07;23.40;56.20
975;DHT22;6115;49.296;10.602;2022-08-25T20:36:08;23.20;56.60
975;DHT22;6115;49.296;10.602;2022-08-25T20:41:10;23.10;56.90
975;DHT22;6115;49.296;10.602;2022-08-25T20:46:11;23.00;57.10
975;DHT22;6115;49.296;10.602;2022-08-25T20:51:12;22.90;57.60
975;DHT22;6115;49.296;10.602;2022-08-25T20:56:15;22.50;58.40
975;DHT22;6115;49.296;10.602;2022-08-25T21:06:16;22.40;59.50
975;DHT22;6115;49.296;10.602;2022-08-25T21:11:17;22.30;59.60
975;DHT22;6115;49.296;10.602;2022-08-25T21:16:17;22.10;61.00
975;DHT22;6115;49.296;10.602;2022-08-25T21:21:18;21.90;60.80
975;DHT22;6115;49.296;10.602;2022-08-25T21:26:21;21.90;60.80
975;DHT22;6115;49.296;10.602;2022-08-25T21:31:22;21.80;60.70
975;DHT22;6115;49.296;10.602;2022-08-25T21:36:25;21.60;62.40
975;DHT22;6115;49.296;10.602;2022-08-25T21:41:29;21.40;63.00
975;DHT22;6115;49.296;10.602;2022-08-25T21:46:31;21.40;63.20
975;DHT22;6115;49.296;10.602;2022-08-25T21:51:38;21.50;63.20
975;DHT22;6115;49.296;10.602;2022-08-25T21:56:54;21.60;63.20
975;DHT22;6115;49.296;10.602;2022-08-25T22:01:56;21.60;63.10
975;DHT22;6115;49.296;10.602;2022-08-25T22:06:57;21.60;63.00
975;DHT22;6115;49.296;10.602;2022-08-25T22:11:57;21.50;63.00
975;DHT22;6115;49.296;10.602;2022-08-25T22:16:59;21.50;63.30
975;DHT22;6115;49.296;10.602;2022-08-25T22:21:59;21.30;63.70
975;DHT22;6115;49.296;10.602;2022-08-25T22:27:00;21.30;64.10
975;DHT22;6115;49.296;10.602;2022-08-25T22:32:01;21.10;65.20
975;DHT22;6115;49.296;10.602;2022-08-25T22:37:03;20.80;66.70
975;DHT22;6115;49.296;10.602;2022-08-25T22:42:03;20.60;66.90
975;DHT22;6115;49.296;10.602;2022-08-25T22:47:05;20.40;67.40
975;DHT22;6115;49.296;10.602;2022-08-25T22:52:06;20.50;66.90
975;DHT22;6115;49.296;10.602;2022-08-25T22:57:06;20.60;66.90
975;DHT22;6115;49.296;10.602;2022-08-25T23:02:07;20.60;66.60
975;DHT22;6115;49.296;10.602;2022-08-25T23:07:08;20.60;66.60
975;DHT22;6115;49.296;10.602;2022-08-25T23:12:09;20.60;67.00
975;DHT22;6115;49.296;10.602;2022-08-25T23:17:09;20.50;67.60
975;DHT22;6115;49.296;10.602;2022-08-25T23:22:10;20.20;68.90
975;DHT22;6115;49.296;10.602;2022-08-25T23:27:14;20.20;69.10
975;DHT22;6115;49.296;10.602;2022-08-25T23:32:16;20.30;68.70
975;DHT22;6115;49.296;10.602;2022-08-25T23:37:17;20.30;68.50
975;DHT22;6115;49.296;10.602;2022-08-25T23:42:18;20.40;68.50
975;DHT22;6115;49.296;10.602;2022-08-25T23:47:19;20.50;68.70
975;DHT22;6115;49.296;10.602;2022-08-25T23:52:20;20.50;68.70
975;DHT22;6115;49.296;10.602;2022-08-25T23:57:21;20.50;68.80
